CheckWX is a tool to help pilots better visualize weather data.  It is not intended as a substitute for an official pre-flight weather briefing.

08:16:14 UTC

KCGF METAR
Cuyahoga County Airport
Cleveland, Ohio, USA
Current

5 hours ago

KCGF 220345Z 27009KT 8SM SKC 02/M03 A3029
Observed
Feb-22 @ 03:45 UTC
Wind
  • 270° at 9 KTS
Visibility
8 SM
Flight Rules
VFR
Cloud Levels
  • Clear skies
Temperature
C / 36°F
Dewpoint
-3°C / 27°F
Humidity
70%
Altimeter
30.29" Hg
Pressure
1025.72 hPa
Previous

6 hours ago

KCGF 220245Z 27009KT 8SM SCT180 02/M03 A3025
Observed
Feb-22 @ 02:45 UTC
Wind
  • 270° at 9 KTS
Visibility
8 SM
Flight Rules
VFR
Cloud Levels
  • Scattered at 18,000' AGL
Temperature
C / 36°F
Dewpoint
-3°C / 27°F
Humidity
70%
Altimeter
30.25" Hg
Pressure
1024.42 hPa
Previous

7 hours ago

KCGF 220145Z 27008KT 8SM SKC 02/M03 A3022
Observed
Feb-22 @ 01:45 UTC
Wind
  • 270° at 8 KTS
Visibility
8 SM
Flight Rules
VFR
Cloud Levels
  • Clear skies
Temperature
C / 36°F
Dewpoint
-3°C / 27°F
Humidity
70%
Altimeter
30.22" Hg
Pressure
1023.42 hPa